This is the latest recevied weather packets stored in our database for station/object WW3TRG. If no packets are shown the sender has not sent any weather packets the latest 10 day(s).
| Time | Temp. | Humidity | Pressure | Rain* | Wind** | Luminosity | Snow |
|---|---|---|---|---|---|---|---|
| 1777565860 | 13.89° C | 78% | 1007.2 hPa | 0 mm | - | 252 W/m² | - |
| 1777565556 | 13.89° C | 77% | 1007.3 hPa | 0 mm | - | 204 W/m² | - |
| 1777565253 | 14.44° C | 77% | 1007.4 hPa | 0 mm | - | 289 W/m² | - |
| 1777564949 | 13.89° C | 76% | 1007.3 hPa | 0 mm | - | 346 W/m² | - |
| 1777564645 | 13.89° C | 79% | 1007.5 hPa | 0 mm | - | 384 W/m² | - |
| 1777564340 | 14.44° C | 80% | 1007.5 hPa | 0 mm | - | 322 W/m² | - |
| 1777564036 | 13.89° C | 80% | 1007.7 hPa | 0 mm | - | 313 W/m² | - |
| 1777563732 | 13.33° C | 81% | 1007.6 hPa | 0 mm | - | 331 W/m² | - |
| 1777563429 | 12.78° C | 82% | 1007.6 hPa | 0 mm | - | 247 W/m² | - |
| 1777563123 | 12.78° C | 82% | 1007.7 hPa | 0 mm | - | 150 W/m² | - |
| 1777562819 | 12.78° C | 82% | 1007.5 hPa | 0 mm | - | 147 W/m² | - |
| 1777562517 | 12.78° C | 84% | 1007.5 hPa | 0 mm | - | 172 W/m² | - |
| 1777562214 | 12.78° C | 83% | 1007.6 hPa | 0 mm | - | 141 W/m² | - |
| 1777561912 | 12.78° C | 84% | 1007.7 hPa | 0 mm | - | 97 W/m² | - |
| 1777561609 | 12.78° C | 83% | 1007.7 hPa | 0 mm | - | 81 W/m² | - |
| 1777561305 | 13.33° C | 82% | 1007.8 hPa | 0 mm | - | 115 W/m² | - |
| 1777561005 | 13.89° C | 81% | 1007.5 hPa | 0 mm | - | 184 W/m² | - |
| 1777560700 | 13.89° C | 83% | 1007.4 hPa | 0 mm | - | 379 W/m² | - |
| 1777560398 | 13.89° C | 83% | 1007.4 hPa | 0 mm | - | 294 W/m² | - |
| 1777560096 | 13.33° C | 85% | 1007.4 hPa | 0 mm | - | 340 W/m² | - |
| 1777559792 | 12.78° C | 88% | 1007.1 hPa | 0 mm | - | 823 W/m² | - |
| 1777559489 | 12.22° C | 89% | 1007.4 hPa | 0 mm | - | 139 W/m² | - |
| 1777559186 | 12.22° C | 89% | 1007.4 hPa | 0 mm | - | 132 W/m² | - |
| 1777558885 | 12.78° C | 91% | 1007.1 hPa | 0 mm | - | 105 W/m² | - |
| 1777558581 | 12.78° C | 90% | 1006.9 hPa | 0 mm | - | 164 W/m² | - |
* Rain latest hour (hover to see other rain measurements)
** Current wind speed in m/s (hover to see current wind gust speed)